Time;durP1;ratioP1;P1;durP2;ratioP2;P2;SDS_P1;SDS_P2;PMS_P1;PMS_P2;Temp;Humidity;BMP_temperature;BMP_pressure;BME280_temperature;BME280_humidity;BME280_pressure;Samples;Min_cycle;Max_cycle;Signal;HPM_P1;HPM_P2
2020/12/12 00:00:42;;;;;;;19.37;9.77;;;0.60;99.90;;;;;;2097473;28;20584;-63
2020/12/12 00:01:43;;;;;;;20.67;10.00;;;0.60;99.90;;;;;;2097989;28;20171;-61
2020/12/12 00:02:44;;;;;;;20.08;10.02;;;0.60;99.90;;;;;;2097750;28;20220;-60
2020/12/12 00:03:44;;;;;;;20.83;9.30;;;0.60;99.90;;;;;;2098206;28;20300;-61
2020/12/12 00:04:45;;;;;;;22.10;11.00;;;0.60;99.90;;;;;;2097973;28;20179;-62
2020/12/12 00:05:46;;;;;;;20.40;10.70;;;0.60;99.90;;;;;;2098323;28;20178;-62
2020/12/12 00:06:47;;;;;;;21.60;10.43;;;0.50;99.90;;;;;;2097817;28;20283;-62
2020/12/12 00:07:47;;;;;;;20.40;9.57;;;0.60;99.90;;;;;;2097519;28;20551;-62
2020/12/12 00:08:48;;;;;;;22.57;10.63;;;0.50;99.90;;;;;;2097691;28;20171;-62
2020/12/12 00:09:49;;;;;;;17.17;9.38;;;0.60;99.90;;;;;;2098137;28;20187;-62
2020/12/12 00:10:50;;;;;;;17.90;8.87;;;0.50;99.90;;;;;;2097961;28;20179;-62
2020/12/12 00:11:51;;;;;;;18.03;9.60;;;0.50;99.90;;;;;;2098154;28;20183;-62
2020/12/12 00:12:52;;;;;;;15.90;9.17;;;0.40;99.90;;;;;;2098141;28;20193;-62
2020/12/12 00:13:53;;;;;;;18.23;9.27;;;0.40;99.90;;;;;;2098010;28;20213;-58
2020/12/12 00:14:54;;;;;;;20.00;10.17;;;0.50;99.90;;;;;;2097701;28;20198;-60
2020/12/12 00:15:54;;;;;;;19.30;10.07;;;0.40;99.90;;;;;;2098064;28;20187;-59
2020/12/12 00:16:55;;;;;;;22.07;9.90;;;0.40;99.90;;;;;;2098112;28;20574;-58
2020/12/12 00:17:56;;;;;;;21.20;10.80;;;0.40;99.90;;;;;;2098222;28;20225;-58
2020/12/12 00:18:57;;;;;;;20.10;9.90;;;0.40;99.90;;;;;;2098180;28;20594;-58
2020/12/12 00:19:57;;;;;;;23.00;10.03;;;0.40;99.90;;;;;;2098124;28;20204;-59
2020/12/12 00:20:58;;;;;;;25.40;11.03;;;0.40;99.90;;;;;;2097791;28;20221;-59
2020/12/12 00:21:59;;;;;;;21.07;9.67;;;0.40;99.90;;;;;;2098198;28;20187;-59
2020/12/12 00:23:00;;;;;;;22.07;10.50;;;0.30;99.90;;;;;;2098154;28;20722;-59
2020/12/12 00:24:00;;;;;;;22.03;10.27;;;0.30;99.90;;;;;;2098182;28;20177;-58
2020/12/12 00:25:01;;;;;;;26.40;11.40;;;0.30;99.90;;;;;;2098096;28;20566;-58
2020/12/12 00:26:02;;;;;;;24.53;10.73;;;0.40;99.90;;;;;;2098124;28;20274;-64
2020/12/12 00:27:02;;;;;;;21.67;10.60;;;0.40;99.90;;;;;;2097517;28;20183;-57
2020/12/12 00:28:03;;;;;;;24.70;10.97;;;0.40;99.90;;;;;;2098133;28;20176;-58
2020/12/12 00:29:04;;;;;;;33.92;13.15;;;0.40;99.90;;;;;;2097983;28;20183;-60
2020/12/12 00:30:05;;;;;;;28.13;12.00;;;0.50;99.90;;;;;;2098032;28;20191;-57
2020/12/12 00:31:06;;;;;;;22.60;10.98;;;0.50;99.90;;;;;;2097864;28;20186;-58
2020/12/12 00:32:07;;;;;;;29.07;11.37;;;0.50;99.90;;;;;;2098016;28;20202;-59
2020/12/12 00:33:07;;;;;;;25.80;10.77;;;0.50;99.90;;;;;;2097963;28;20257;-58
2020/12/12 00:34:09;;;;;;;25.00;11.00;;;0.50;99.90;;;;;;2098223;28;20645;-57
2020/12/12 00:35:10;;;;;;;27.20;12.57;;;0.50;99.90;;;;;;2098014;28;20205;-59
2020/12/12 00:36:11;;;;;;;20.87;9.83;;;0.60;99.90;;;;;;2097985;28;20185;-58
2020/12/12 00:37:12;;;;;;;25.05;11.07;;;0.60;99.90;;;;;;2098034;28;20783;-57
2020/12/12 00:38:12;;;;;;;21.43;11.00;;;0.60;99.90;;;;;;2097811;28;20195;-58
2020/12/12 00:39:13;;;;;;;26.27;11.33;;;0.50;99.90;;;;;;2098126;28;20268;-58
2020/12/12 00:40:14;;;;;;;23.47;10.10;;;0.50;99.90;;;;;;2097900;28;20183;-59
2020/12/12 00:41:14;;;;;;;20.30;10.57;;;0.50;99.90;;;;;;2097705;28;20673;-57
2020/12/12 00:42:15;;;;;;;22.70;10.47;;;0.50;99.90;;;;;;2098020;28;20274;-58
2020/12/12 00:43:16;;;;;;;20.03;10.13;;;0.50;99.90;;;;;;2097904;28;20228;-57
2020/12/12 00:44:17;;;;;;;14.40;7.53;;;0.50;99.90;;;;;;2097852;28;20642;-58
2020/12/12 00:45:17;;;;;;;23.90;10.57;;;0.50;99.90;;;;;;2098016;28;20179;-58
2020/12/12 00:46:18;;;;;;;23.47;10.63;;;0.40;99.90;;;;;;2097058;28;20184;-58
2020/12/12 00:47:19;;;;;;;21.70;10.80;;;0.50;99.90;;;;;;2097798;28;20178;-57
2020/12/12 00:48:19;;;;;;;22.47;11.17;;;0.50;99.90;;;;;;2097860;28;20215;-59
2020/12/12 00:49:20;;;;;;;22.33;10.57;;;0.60;99.90;;;;;;2097762;28;20190;-56
2020/12/12 00:50:23;;;;;;;18.97;10.40;;;0.60;99.90;;;;;;2098025;28;20546;-57
2020/12/12 00:51:23;;;;;;;18.63;9.40;;;0.60;99.90;;;;;;2097797;28;20190;-57
2020/12/12 00:52:24;;;;;;;19.17;8.87;;;0.60;99.90;;;;;;2097962;28;20252;-57
2020/12/12 00:53:25;;;;;;;18.90;9.83;;;0.50;99.90;;;;;;2098132;28;20182;-57
2020/12/12 00:54:26;;;;;;;19.37;10.17;;;0.50;99.90;;;;;;2097949;28;20260;-58
2020/12/12 00:55:27;;;;;;;16.88;8.63;;;0.50;99.90;;;;;;2097777;28;20186;-59
2020/12/12 00:56:28;;;;;;;23.00;10.83;;;0.50;99.90;;;;;;2097690;28;20702;-57
2020/12/12 00:57:28;;;;;;;15.77;9.17;;;0.50;99.90;;;;;;2098022;28;20320;-56
2020/12/12 00:58:29;;;;;;;18.07;9.87;;;0.50;99.90;;;;;;2097944;28;20185;-59
2020/12/12 00:59:30;;;;;;;19.03;9.87;;;0.60;99.90;;;;;;2098100;28;20712;-58
2020/12/12 01:00:33;;;;;;;16.27;9.03;;;0.50;99.90;;;;;;2097877;28;20184;-57
2020/12/12 01:01:34;;;;;;;16.83;8.35;;;0.50;99.90;;;;;;2097930;28;20266;-58
2020/12/12 01:02:35;;;;;;;19.27;9.63;;;0.60;99.90;;;;;;2097804;28;20188;-56
2020/12/12 01:03:37;;;;;;;17.95;9.30;;;0.60;99.90;;;;;;2097985;28;20645;-58
2020/12/12 01:04:37;;;;;;;16.67;9.27;;;0.60;99.90;;;;;;2097770;28;20188;-57
2020/12/12 01:05:38;;;;;;;16.60;8.80;;;0.60;99.90;;;;;;2097937;28;20218;-58
2020/12/12 01:06:39;;;;;;;15.47;8.77;;;0.60;99.90;;;;;;2097680;28;20194;-59
2020/12/12 01:07:40;;;;;;;17.45;8.82;;;0.50;99.90;;;;;;2097791;28;20178;-57
2020/12/12 01:08:42;;;;;;;20.33;9.07;;;0.50;99.90;;;;;;2097845;28;20183;-56
2020/12/12 01:09:43;;;;;;;16.42;9.02;;;0.50;99.90;;;;;;2097994;28;20707;-59
2020/12/12 01:10:43;;;;;;;13.43;7.37;;;0.50;99.90;;;;;;2097665;28;20222;-58
2020/12/12 01:11:45;;;;;;;14.03;7.80;;;0.50;99.90;;;;;;2097498;28;20183;-58
2020/12/12 01:12:45;;;;;;;17.13;8.77;;;0.50;99.90;;;;;;2097824;28;20183;-58
2020/12/12 01:13:46;;;;;;;16.03;8.83;;;0.50;99.90;;;;;;2097850;28;20269;-59
2020/12/12 01:14:47;;;;;;;16.80;8.27;;;0.40;99.90;;;;;;2097779;28;20183;-58
2020/12/12 01:15:48;;;;;;;17.02;8.80;;;0.40;99.90;;;;;;2097760;28;20627;-57
2020/12/12 01:16:48;;;;;;;15.40;8.63;;;0.40;99.90;;;;;;2097748;28;20206;-59
2020/12/12 01:17:49;;;;;;;16.97;8.93;;;0.50;99.90;;;;;;2097545;28;20175;-58
2020/12/12 01:18:50;;;;;;;18.77;9.37;;;0.40;99.90;;;;;;2097789;28;20552;-58
2020/12/12 01:19:51;;;;;;;18.60;9.37;;;0.40;99.90;;;;;;2097666;28;20210;-58
2020/12/12 01:20:51;;;;;;;15.83;8.70;;;0.50;99.90;;;;;;2097488;28;20210;-58
2020/12/12 01:21:54;;;;;;;17.97;8.30;;;0.60;99.90;;;;;;2097747;28;20179;-60
2020/12/12 01:22:55;;;;;;;16.08;8.45;;;0.60;99.90;;;;;;2097797;28;20179;-56
2020/12/12 01:23:55;;;;;;;16.67;9.07;;;0.60;99.90;;;;;;2097449;28;20178;-58
2020/12/12 01:24:56;;;;;;;15.60;8.30;;;0.60;99.90;;;;;;2097853;28;20178;-55
2020/12/12 01:25:57;;;;;;;15.93;8.00;;;0.60;99.90;;;;;;2097629;28;20175;-58
2020/12/12 01:26:57;;;;;;;17.47;8.93;;;0.60;99.90;;;;;;2097775;28;20675;-58
2020/12/12 01:27:58;;;;;;;18.83;9.33;;;0.60;99.90;;;;;;2097453;28;20190;-59
2020/12/12 01:28:59;;;;;;;15.60;8.47;;;0.60;99.90;;;;;;2097620;28;20176;-58
2020/12/12 01:30:00;;;;;;;18.53;8.57;;;0.60;99.90;;;;;;2097592;28;20312;-58
2020/12/12 01:31:01;;;;;;;16.83;8.97;;;0.60;99.90;;;;;;2097593;28;20197;-58
2020/12/12 01:32:02;;;;;;;17.40;9.50;;;0.60;99.90;;;;;;2097454;28;20703;-60
2020/12/12 01:33:03;;;;;;;16.57;8.83;;;0.70;99.90;;;;;;2097783;28;20202;-57
2020/12/12 01:34:04;;;;;;;14.63;7.75;;;0.70;99.90;;;;;;2097534;28;20262;-57
2020/12/12 01:35:05;;;;;;;14.80;8.55;;;0.70;99.90;;;;;;2097591;28;20214;-57
2020/12/12 01:36:09;;;;;;;18.73;9.70;;;0.70;99.90;;;;;;2097419;28;20190;-59
2020/12/12 01:37:10;;;;;;;17.77;9.40;;;0.80;99.90;;;;;;2097786;28;20206;-59
2020/12/12 01:38:11;;;;;;;18.70;9.93;;;0.80;99.90;;;;;;2097589;28;20183;-56
2020/12/12 01:39:12;;;;;;;15.65;9.27;;;0.80;99.90;;;;;;2097559;28;20659;-59
2020/12/12 01:40:13;;;;;;;19.97;9.73;;;0.70;99.90;;;;;;2097569;28;20186;-58
2020/12/12 01:41:17;;;;;;;19.63;10.32;;;0.70;99.90;;;;;;2104822;28;20209;-59
2020/12/12 01:42:17;;;;;;;17.58;9.05;;;0.70;99.90;;;;;;2104912;28;20274;-58
2020/12/12 01:43:18;;;;;;;25.37;11.00;;;0.70;99.90;;;;;;2097543;28;20190;-56
2020/12/12 01:44:19;;;;;;;20.37;10.50;;;0.70;99.90;;;;;;2097555;28;20258;-58
2020/12/12 01:45:19;;;;;;;22.13;10.50;;;0.70;99.90;;;;;;2097618;28;20168;-59
2020/12/12 01:46:26;;;;;;;22.73;10.73;;;0.60;99.90;;;;;;2097285;28;20191;-58
2020/12/12 01:47:28;;;;;;;23.45;10.05;;;0.70;99.90;;;;;;2097493;28;20635;-58
2020/12/12 01:48:29;;;;;;;26.42;12.05;;;0.60;99.90;;;;;;2096809;28;20191;-58
2020/12/12 01:49:30;;;;;;;26.00;11.27;;;0.70;99.90;;;;;;2096897;28;20183;-58
2020/12/12 01:50:31;;;;;;;25.13;11.17;;;0.70;99.90;;;;;;2097447;28;20264;-57
2020/12/12 01:51:33;;;;;;;22.73;10.75;;;0.60;99.90;;;;;;2097333;28;20245;-59
2020/12/12 01:52:35;;;;;;;26.15;11.65;;;0.60;99.90;;;;;;2097215;28;20666;-58
2020/12/12 01:53:36;;;;;;;27.10;11.73;;;0.50;99.90;;;;;;2097661;28;20718;-58
2020/12/12 01:54:37;;;;;;;24.27;11.13;;;0.50;99.90;;;;;;2097485;28;20179;-58
2020/12/12 01:55:43;;;;;;;27.67;11.73;;;0.50;99.90;;;;;;2097611;28;20667;-58
2020/12/12 01:56:46;;;;;;;25.65;11.50;;;0.50;99.90;;;;;;2105103;28;20586;-59
2020/12/12 01:57:51;;;;;;;25.10;11.55;;;0.50;99.90;;;;;;2096358;28;20267;-59
2020/12/12 01:58:53;;;;;;;26.88;12.18;;;0.50;99.90;;;;;;2096875;28;20208;-57
2020/12/12 01:59:53;;;;;;;30.25;12.60;;;0.50;99.90;;;;;;2097586;28;20194;-58
2020/12/12 02:00:54;;;;;;;28.90;12.60;;;0.50;99.90;;;;;;2097244;28;20211;-58
2020/12/12 02:01:58;;;;;;;33.37;13.30;;;0.50;99.90;;;;;;2097506;28;20180;-57
2020/12/12 02:03:02;;;;;;;35.50;13.43;;;0.50;99.90;;;;;;2096693;28;20731;-58
2020/12/12 02:04:07;;;;;;;31.60;13.48;;;0.60;99.90;;;;;;2097051;28;20244;-58
2020/12/12 02:05:11;;;;;;;30.48;13.07;;;0.60;99.90;;;;;;2097630;28;20189;-59
2020/12/12 02:06:17;;;;;;;30.42;12.57;;;0.60;99.90;;;;;;2105138;28;20181;-59
2020/12/12 02:07:20;;;;;;;26.27;11.48;;;0.60;99.90;;;;;;2104445;28;20178;-58
2020/12/12 02:08:21;;;;;;;26.35;11.30;;;0.60;99.90;;;;;;2096917;28;20202;-58
2020/12/12 02:09:22;;;;;;;24.27;10.77;;;0.60;99.90;;;;;;2096621;28;20191;-58
2020/12/12 02:10:23;;;;;;;22.35;10.23;;;0.70;99.90;;;;;;2096786;28;20748;-58
2020/12/12 02:11:24;;;;;;;25.70;11.47;;;0.70;99.90;;;;;;2096600;28;20277;-58
2020/12/12 02:12:25;;;;;;;27.13;12.27;;;0.70;99.90;;;;;;2097425;28;20654;-58
2020/12/12 02:13:26;;;;;;;27.83;12.47;;;0.70;99.90;;;;;;2105157;28;20204;-58
2020/12/12 02:14:26;;;;;;;24.60;12.00;;;0.70;99.90;;;;;;2105059;28;20193;-58
2020/12/12 02:15:27;;;;;;;25.03;12.17;;;0.80;99.90;;;;;;2097296;28;20228;-58
2020/12/12 02:16:28;;;;;;;25.37;12.20;;;0.80;99.90;;;;;;2097435;28;20291;-58
2020/12/12 02:17:28;;;;;;;26.33;11.73;;;0.80;99.90;;;;;;2097237;28;20176;-58
2020/12/12 02:18:29;;;;;;;29.30;13.33;;;0.80;99.90;;;;;;2097146;28;20183;-57
2020/12/12 02:19:30;;;;;;;28.67;12.17;;;0.80;99.90;;;;;;2097343;28;20183;-58
2020/12/12 02:20:31;;;;;;;27.30;11.93;;;0.70;99.90;;;;;;2097253;28;20183;-58
2020/12/12 02:21:32;;;;;;;30.80;13.07;;;0.70;99.90;;;;;;2097224;28;20218;-57
2020/12/12 02:22:32;;;;;;;23.37;11.07;;;0.70;99.90;;;;;;2097570;28;20261;-55
2020/12/12 02:23:34;;;;;;;25.97;11.70;;;0.70;99.90;;;;;;2097432;28;20261;-58
2020/12/12 02:24:35;;;;;;;24.13;11.48;;;0.70;99.90;;;;;;2097543;28;20569;-58
2020/12/12 02:25:36;;;;;;;25.95;12.80;;;0.80;99.90;;;;;;2097524;28;20547;-58
2020/12/12 02:26:37;;;;;;;26.20;12.60;;;0.80;99.90;;;;;;2097493;28;20191;-59
2020/12/12 02:27:38;;;;;;;25.17;11.83;;;0.80;99.90;;;;;;2097478;28;20169;-58
2020/12/12 02:28:49;;;;;;;26.00;12.77;;;0.80;99.90;;;;;;2097457;28;20210;-58
2020/12/12 02:29:50;;;;;;;23.52;11.10;;;0.80;99.90;;;;;;2097544;28;20164;-60
2020/12/12 02:30:51;;;;;;;22.27;10.88;;;0.80;99.90;;;;;;2097205;28;20309;-58
2020/12/12 02:31:52;;;;;;;25.33;11.97;;;0.90;99.90;;;;;;2097368;28;20265;-57
2020/12/12 02:32:52;;;;;;;28.90;13.27;;;0.90;99.90;;;;;;2097291;28;20266;-58
2020/12/12 02:33:53;;;;;;;24.93;12.50;;;0.90;99.90;;;;;;2097514;28;20175;-58
2020/12/12 02:34:54;;;;;;;20.67;10.67;;;0.90;99.90;;;;;;2097507;28;20172;-58
2020/12/12 02:35:57;;;;;;;24.03;11.63;;;0.90;99.90;;;;;;2097443;28;20187;-58
2020/12/12 02:36:57;;;;;;;21.05;11.32;;;0.90;99.90;;;;;;2097299;28;20767;-58
2020/12/12 02:37:58;;;;;;;23.27;11.33;;;0.90;99.90;;;;;;2097342;28;20195;-57
2020/12/12 02:38:59;;;;;;;24.13;11.23;;;0.90;99.90;;;;;;2097336;28;20233;-58
2020/12/12 02:39:59;;;;;;;20.60;10.27;;;0.90;99.90;;;;;;2097553;28;20212;-58
2020/12/12 02:41:00;;;;;;;21.33;10.27;;;0.90;99.90;;;;;;2097314;28;20235;-58
2020/12/12 02:42:01;;;;;;;24.15;11.50;;;0.90;99.90;;;;;;2097338;28;20184;-57
2020/12/12 02:43:02;;;;;;;22.80;11.43;;;0.90;99.90;;;;;;2097351;28;20213;-58
2020/12/12 02:44:03;;;;;;;20.17;10.00;;;0.90;99.90;;;;;;2097395;28;20259;-57
2020/12/12 02:45:04;;;;;;;19.40;9.77;;;0.90;99.90;;;;;;2097535;28;20176;-58
2020/12/12 02:46:05;;;;;;;19.60;10.55;;;0.90;99.90;;;;;;2097478;28;20180;-58
2020/12/12 02:47:05;;;;;;;19.33;10.43;;;0.90;99.90;;;;;;2097380;28;20667;-58
2020/12/12 02:48:06;;;;;;;25.40;11.53;;;0.90;99.90;;;;;;2097637;28;20168;-59
2020/12/12 02:49:07;;;;;;;29.00;11.73;;;0.80;99.90;;;;;;2097398;28;20182;-58
2020/12/12 02:50:11;;;;;;;23.57;11.27;;;0.90;99.90;;;;;;2105251;28;20217;-58
2020/12/12 02:51:12;;;;;;;19.80;10.57;;;0.80;99.90;;;;;;2104556;28;20218;-60
2020/12/12 02:52:12;;;;;;;18.97;10.30;;;0.80;99.90;;;;;;2110366;22;20336;-66
2020/12/12 02:53:13;;;;;;;22.17;10.83;;;0.80;99.90;;;;;;2097408;28;20178;-67
2020/12/12 02:54:14;;;;;;;24.03;11.97;;;0.80;99.90;;;;;;2097243;28;20417;-66
2020/12/12 02:55:15;;;;;;;22.27;11.17;;;0.80;99.90;;;;;;2097237;28;20185;-66
2020/12/12 02:56:16;;;;;;;19.40;10.70;;;0.80;99.90;;;;;;2097132;28;20509;-66
2020/12/12 02:57:17;;;;;;;22.95;11.25;;;0.80;99.90;;;;;;2097289;28;20189;-66
2020/12/12 02:58:18;;;;;;;19.27;9.90;;;0.80;99.90;;;;;;2097367;28;20214;-66
2020/12/12 02:59:18;;;;;;;23.77;10.53;;;0.80;99.90;;;;;;2097441;28;20213;-66
2020/12/12 03:00:23;;;;;;;23.57;10.93;;;0.80;99.90;;;;;;2096671;28;20207;-66
2020/12/12 03:01:24;;;;;;;18.27;9.98;;;0.80;99.90;;;;;;2096752;28;20204;-66
2020/12/12 03:02:25;;;;;;;20.23;10.77;;;0.80;99.90;;;;;;2089001;28;20201;-67
2020/12/12 03:03:25;;;;;;;23.47;11.00;;;0.80;99.90;;;;;;2080408;28;20518;-66
2020/12/12 03:04:26;;;;;;;19.00;9.40;;;0.90;99.90;;;;;;2088581;28;20590;-66
2020/12/12 03:05:27;;;;;;;25.60;11.67;;;0.90;99.90;;;;;;2089070;28;20180;-66
2020/12/12 03:06:27;;;;;;;19.70;10.67;;;0.90;99.90;;;;;;2089327;28;20188;-67
2020/12/12 03:07:28;;;;;;;27.23;11.67;;;0.90;99.90;;;;;;2088887;28;20173;-66
2020/12/12 03:08:29;;;;;;;20.40;10.80;;;1.00;99.90;;;;;;2088455;28;20180;-66
2020/12/12 03:09:30;;;;;;;22.00;11.02;;;1.00;99.90;;;;;;2089196;28;20273;-66
2020/12/12 03:10:31;;;;;;;23.03;11.43;;;0.90;99.90;;;;;;2089781;28;20180;-66
2020/12/12 03:11:31;;;;;;;24.37;12.23;;;0.90;99.90;;;;;;2089476;28;20183;-67
2020/12/12 03:12:37;;;;;;;23.20;11.27;;;0.80;99.90;;;;;;2081619;28;20188;-66
2020/12/12 03:13:37;;;;;;;22.13;10.88;;;0.90;99.90;;;;;;2074619;28;20185;-66
2020/12/12 03:14:38;;;;;;;28.23;12.47;;;0.80;99.90;;;;;;2089587;28;20533;-66
2020/12/12 03:15:39;;;;;;;22.93;11.60;;;0.80;99.90;;;;;;2090439;28;20238;-66
2020/12/12 03:16:39;;;;;;;25.53;12.23;;;0.80;99.90;;;;;;2090318;28;20808;-67
2020/12/12 03:17:40;;;;;;;20.37;11.17;;;0.80;99.90;;;;;;2090588;28;20223;-66
2020/12/12 03:18:41;;;;;;;22.10;11.20;;;0.80;99.90;;;;;;2090439;28;20256;-65
2020/12/12 03:19:41;;;;;;;21.70;11.40;;;0.70;99.90;;;;;;2089723;28;20855;-66
2020/12/12 03:20:42;;;;;;;21.13;10.90;;;0.70;99.90;;;;;;2089704;28;20306;-66
2020/12/12 03:21:43;;;;;;;27.03;13.57;;;0.70;99.90;;;;;;2089578;28;20171;-66
2020/12/12 03:22:43;;;;;;;24.90;11.73;;;0.70;99.90;;;;;;2090404;28;20250;-66
2020/12/12 03:23:44;;;;;;;22.30;12.17;;;0.70;99.90;;;;;;2090404;28;20222;-66
2020/12/12 03:24:45;;;;;;;25.57;12.37;;;0.80;99.90;;;;;;2090481;28;20195;-66
2020/12/12 03:25:46;;;;;;;20.25;11.25;;;0.70;99.90;;;;;;2090346;28;20192;-66
2020/12/12 03:26:47;;;;;;;22.50;11.80;;;0.70;99.90;;;;;;2090379;28;20586;-66
2020/12/12 03:27:48;;;;;;;24.05;12.02;;;0.80;99.90;;;;;;2089509;28;20267;-67
2020/12/12 03:28:48;;;;;;;20.90;11.70;;;0.80;99.90;;;;;;2089903;28;20684;-66
2020/12/12 03:29:49;;;;;;;23.00;11.33;;;0.90;99.90;;;;;;2090324;28;20180;-67
2020/12/12 03:30:50;;;;;;;18.57;10.63;;;0.90;99.90;;;;;;2090149;28;20263;-65
2020/12/12 03:31:50;;;;;;;27.83;12.67;;;0.90;99.90;;;;;;2090204;28;20621;-67
2020/12/12 03:32:51;;;;;;;19.97;10.93;;;0.80;99.90;;;;;;2089713;28;20169;-66
2020/12/12 03:33:52;;;;;;;21.03;11.53;;;0.80;99.90;;;;;;2089555;28;20173;-67
2020/12/12 03:34:52;;;;;;;21.83;11.60;;;0.90;99.90;;;;;;2090303;28;20188;-66
2020/12/12 03:35:53;;;;;;;19.73;10.63;;;0.90;99.90;;;;;;2090119;28;20169;-66
2020/12/12 03:36:54;;;;;;;18.90;10.63;;;0.90;99.90;;;;;;2090219;28;20176;-66
2020/12/12 03:38:01;;;;;;;25.33;12.03;;;0.80;99.90;;;;;;2090197;28;20180;-67
2020/12/12 03:39:03;;;;;;;18.17;9.50;;;0.80;99.90;;;;;;2090192;28;20175;-66
2020/12/12 03:40:04;;;;;;;20.42;10.23;;;0.90;99.90;;;;;;2090267;28;20191;-66
2020/12/12 03:41:05;;;;;;;27.90;13.25;;;0.90;99.90;;;;;;2089419;28;20199;-67
2020/12/12 03:42:06;;;;;;;23.37;10.90;;;0.90;99.90;;;;;;2089544;28;20283;-66
2020/12/12 03:43:06;;;;;;;24.42;11.75;;;0.90;99.90;;;;;;2090256;28;20187;-66
2020/12/12 03:44:07;;;;;;;23.03;10.90;;;1.00;99.90;;;;;;2090025;28;20191;-67
2020/12/12 03:45:08;;;;;;;22.83;10.77;;;1.00;99.90;;;;;;2090303;28;20207;-67
2020/12/12 03:46:08;;;;;;;20.93;10.50;;;1.00;99.90;;;;;;2090192;28;20174;-67
2020/12/12 03:47:09;;;;;;;24.77;11.27;;;1.00;99.90;;;;;;2090424;28;20187;-67
2020/12/12 03:48:10;;;;;;;29.53;12.27;;;1.00;99.90;;;;;;2090310;28;20184;-67
2020/12/12 03:49:10;;;;;;;21.37;10.47;;;1.00;99.90;;;;;;2090334;28;20188;-66
2020/12/12 03:50:11;;;;;;;32.70;13.07;;;1.00;99.90;;;;;;2090070;28;20175;-67
2020/12/12 03:51:12;;;;;;;21.83;11.07;;;1.00;99.90;;;;;;2090063;28;20172;-66
2020/12/12 03:52:15;;;;;;;30.00;11.33;;;1.00;99.90;;;;;;2089434;28;20324;-67
2020/12/12 03:53:16;;;;;;;19.00;9.50;;;1.00;99.90;;;;;;2082403;28;20684;-66
2020/12/12 03:54:16;;;;;;;21.63;10.23;;;1.00;99.90;;;;;;2089513;28;20194;-67
2020/12/12 03:55:17;;;;;;;13.70;7.50;;;1.00;99.90;;;;;;2089864;28;20610;-66
2020/12/12 03:56:17;;;;;;;18.53;9.33;;;1.00;99.90;;;;;;2090281;28;20287;-67
2020/12/12 03:57:18;;;;;;;22.37;10.10;;;0.90;99.90;;;;;;2090305;28;20325;-66
2020/12/12 03:58:19;;;;;;;20.10;10.07;;;1.00;99.90;;;;;;2090279;28;20682;-66
2020/12/12 03:59:20;;;;;;;19.03;10.23;;;0.90;99.90;;;;;;2089575;28;20188;-67
2020/12/12 04:00:21;;;;;;;22.42;10.02;;;1.00;99.90;;;;;;2090147;28;20224;-66
2020/12/12 04:01:21;;;;;;;23.07;10.20;;;1.00;99.90;;;;;;2089620;28;20832;-67
2020/12/12 04:02:22;;;;;;;23.10;10.27;;;1.00;99.90;;;;;;2090243;28;20262;-67
2020/12/12 04:03:23;;;;;;;27.90;11.57;;;0.90;99.90;;;;;;2090044;28;20687;-67
2020/12/12 04:04:23;;;;;;;23.63;10.17;;;0.90;99.90;;;;;;2090119;28;20733;-67
2020/12/12 04:05:24;;;;;;;21.47;10.87;;;0.90;99.90;;;;;;2090045;28;20230;-66
2020/12/12 04:06:25;;;;;;;18.17;9.27;;;0.90;99.90;;;;;;2090026;28;20171;-67
2020/12/12 04:07:25;;;;;;;19.37;8.87;;;0.90;99.90;;;;;;2090281;28;20185;-67
2020/12/12 04:08:26;;;;;;;19.73;9.77;;;0.90;99.90;;;;;;2090320;28;20184;-67
2020/12/12 04:09:27;;;;;;;25.07;11.40;;;0.90;99.90;;;;;;2090241;28;20222;-67
2020/12/12 04:10:27;;;;;;;21.33;9.97;;;0.80;99.90;;;;;;2090385;28;20175;-67
2020/12/12 04:11:28;;;;;;;23.37;10.60;;;0.80;99.90;;;;;;2090075;28;20693;-67
2020/12/12 04:12:29;;;;;;;21.23;10.20;;;0.80;99.90;;;;;;2089538;28;20234;-66
2020/12/12 04:13:30;;;;;;;17.27;9.17;;;0.80;99.90;;;;;;2089678;28;20183;-67
2020/12/12 04:14:31;;;;;;;17.38;8.32;;;0.70;99.90;;;;;;2090182;28;20194;-66
2020/12/12 04:15:32;;;;;;;20.45;9.98;;;0.70;99.90;;;;;;2090072;28;20185;-67
2020/12/12 04:16:33;;;;;;;19.13;9.40;;;0.70;99.90;;;;;;2090206;28;20240;-65
2020/12/12 04:17:33;;;;;;;27.20;11.50;;;0.70;99.90;;;;;;2097584;28;20175;-67
2020/12/12 04:18:34;;;;;;;21.80;10.30;;;0.60;99.90;;;;;;2097210;28;20190;-67
2020/12/12 04:19:35;;;;;;;27.40;10.37;;;0.70;99.90;;;;;;2090144;28;20226;-65
2020/12/12 04:20:35;;;;;;;15.60;7.97;;;0.60;99.90;;;;;;2089771;28;20180;-67
2020/12/12 04:21:36;;;;;;;18.67;9.37;;;0.70;99.90;;;;;;2089796;28;20212;-67
2020/12/12 04:22:37;;;;;;;23.13;10.50;;;0.60;99.90;;;;;;2090099;28;20222;-65
2020/12/12 04:23:37;;;;;;;22.27;10.00;;;0.60;99.90;;;;;;2089969;28;20168;-67
2020/12/12 04:24:38;;;;;;;25.77;10.90;;;0.60;99.90;;;;;;2089935;28;20549;-67
2020/12/12 04:25:39;;;;;;;20.27;9.93;;;0.70;99.90;;;;;;2090098;28;20176;-66
2020/12/12 04:26:39;;;;;;;18.90;10.03;;;0.70;99.90;;;;;;2089902;28;20171;-67
2020/12/12 04:27:41;;;;;;;20.00;9.70;;;0.60;99.90;;;;;;2090167;28;20660;-67
2020/12/12 04:28:41;;;;;;;15.40;8.65;;;0.60;99.90;;;;;;2090005;28;20234;-67
2020/12/12 04:29:42;;;;;;;18.13;9.30;;;0.60;99.90;;;;;;2090007;28;20261;-67
2020/12/12 04:30:43;;;;;;;16.70;9.60;;;0.60;99.90;;;;;;2089775;28;20179;-66
2020/12/12 04:31:43;;;;;;;17.70;8.83;;;0.60;99.90;;;;;;2089733;28;20169;-66
2020/12/12 04:32:44;;;;;;;19.23;9.70;;;0.60;99.90;;;;;;2089853;28;20263;-67
2020/12/12 04:33:45;;;;;;;16.93;8.87;;;0.60;99.90;;;;;;2097566;28;20176;-67
2020/12/12 04:34:45;;;;;;;20.70;9.20;;;0.60;99.90;;;;;;2097311;28;20201;-67
2020/12/12 04:35:46;;;;;;;16.20;8.70;;;0.60;99.90;;;;;;2089903;28;20202;-66
2020/12/12 04:36:47;;;;;;;13.13;8.23;;;0.60;99.90;;;;;;2089781;28;20195;-66
2020/12/12 04:37:48;;;;;;;12.83;7.17;;;0.70;99.90;;;;;;2089944;28;20176;-67
2020/12/12 04:38:49;;;;;;;16.20;9.13;;;0.70;99.90;;;;;;2089823;28;20176;-66
2020/12/12 04:39:50;;;;;;;13.57;7.90;;;0.80;99.90;;;;;;2089958;28;20553;-66
2020/12/12 04:40:52;;;;;;;17.43;9.17;;;0.80;99.90;;;;;;2089509;28;20189;-67
2020/12/12 04:41:54;;;;;;;15.10;8.60;;;0.80;99.90;;;;;;2089310;28;20268;-67
2020/12/12 04:42:55;;;;;;;20.67;10.23;;;0.80;99.90;;;;;;2089305;28;20208;-67
2020/12/12 04:43:56;;;;;;;16.35;9.40;;;0.80;99.90;;;;;;2089874;28;20234;-67
2020/12/12 04:44:57;;;;;;;19.67;9.93;;;0.80;99.90;;;;;;2097424;28;20182;-67
2020/12/12 04:45:59;;;;;;;21.35;11.40;;;0.70;99.90;;;;;;2089004;28;20187;-66
2020/12/12 04:47:00;;;;;;;15.55;8.80;;;0.70;99.90;;;;;;2089190;28;20644;-66
2020/12/12 04:48:01;;;;;;;14.82;8.38;;;0.70;99.90;;;;;;2089223;28;20183;-67
2020/12/12 04:49:02;;;;;;;19.53;10.00;;;0.70;99.90;;;;;;2089274;28;20550;-66
2020/12/12 04:50:04;;;;;;;15.47;8.43;;;0.60;99.90;;;;;;2089928;28;20226;-66
2020/12/12 04:51:05;;;;;;;15.32;8.48;;;0.60;99.90;;;;;;2089538;28;20800;-67
2020/12/12 04:52:06;;;;;;;18.30;9.07;;;0.70;99.90;;;;;;2089609;28;20604;-66
2020/12/12 04:53:16;;;;;;;19.30;10.00;;;0.70;99.90;;;;;;2089191;28;20219;-66
2020/12/12 04:54:20;;;;;;;16.60;8.20;;;0.70;99.90;;;;;;2082149;28;20177;-66
2020/12/12 04:55:22;;;;;;;9.05;5.28;;;0.70;99.90;;;;;;2089042;28;20267;-66
2020/12/12 04:56:25;;;;;;;8.00;4.50;;;0.80;99.90;;;;;;2089115;28;20190;-67
2020/12/12 04:57:25;;;;;;;8.77;5.10;;;0.90;99.90;;;;;;2088908;28;20645;-67
2020/12/12 04:58:28;;;;;;;7.20;4.77;;;0.90;99.90;;;;;;2089766;28;20253;-66
2020/12/12 04:59:31;;;;;;;6.03;3.92;;;1.00;99.90;;;;;;2089095;28;20695;-67
2020/12/12 05:00:32;;;;;;;7.68;4.30;;;1.10;99.90;;;;;;2089097;28;20184;-67
2020/12/12 05:01:33;;;;;;;6.87;4.17;;;1.10;99.90;;;;;;2089266;28;20319;-66
2020/12/12 05:02:34;;;;;;;8.23;4.63;;;1.10;99.90;;;;;;2089576;28;20279;-67
2020/12/12 05:03:36;;;;;;;9.27;5.55;;;1.10;99.90;;;;;;2088896;28;20187;-66
2020/12/12 05:04:37;;;;;;;7.18;4.85;;;1.20;99.90;;;;;;2089041;28;20179;-67
2020/12/12 05:05:37;;;;;;;8.70;4.97;;;1.20;99.90;;;;;;2089450;28;20238;-66
2020/12/12 05:06:38;;;;;;;8.63;5.13;;;1.20;99.90;;;;;;2089183;28;20191;-66
2020/12/12 05:07:39;;;;;;;8.90;5.03;;;1.30;99.90;;;;;;2088955;28;20195;-67
2020/12/12 05:08:39;;;;;;;9.97;5.40;;;1.30;99.90;;;;;;2089432;28;20200;-66
2020/12/12 05:09:40;;;;;;;9.87;5.47;;;1.30;99.90;;;;;;2089578;28;20176;-66
2020/12/12 05:10:44;;;;;;;7.47;4.60;;;1.30;99.90;;;;;;2089602;28;20179;-66
2020/12/12 05:11:49;;;;;;;8.60;4.50;;;1.20;99.90;;;;;;2089378;28;20195;-66
2020/12/12 05:12:51;;;;;;;6.53;3.65;;;1.30;99.90;;;;;;2089581;28;20176;-67
2020/12/12 05:13:53;;;;;;;7.47;4.10;;;1.30;99.90;;;;;;2089515;28;20184;-67
2020/12/12 05:14:53;;;;;;;6.07;3.42;;;1.20;99.90;;;;;;2088976;28;20269;-67
2020/12/12 05:15:56;;;;;;;8.37;4.30;;;1.20;99.90;;;;;;2088946;28;20229;-67